Time;durP1;ratioP1;P1;durP2;ratioP2;P2;SDS_P1;SDS_P2;PMS_P1;PMS_P2;Temp;Humidity;BMP_temperature;BMP_pressure;BME280_temperature;BME280_humidity;BME280_pressure;Samples;Min_cycle;Max_cycle;Signal;HPM_P1;HPM_P2
2022/06/29 00:02:16;;;;;;;4.82;3.47;;;;;;;19.47;56.67;101521.66;5054676;28;20446;-68
2022/06/29 00:04:42;;;;;;;5.72;3.55;;;;;;;19.44;56.42;101520.28;5057826;28;20039;-68
2022/06/29 00:07:07;;;;;;;4.28;3.30;;;;;;;19.43;56.56;101518.59;5055681;28;20471;-68
2022/06/29 00:09:32;;;;;;;4.35;3.20;;;;;;;19.42;56.32;101516.09;5051578;28;20440;-68
2022/06/29 00:11:58;;;;;;;4.10;3.30;;;;;;;19.34;56.57;101514.75;5046874;28;20078;-69
2022/06/29 00:14:23;;;;;;;4.07;3.30;;;;;;;19.34;56.30;101507.16;5061276;28;20801;-68
2022/06/29 00:16:49;;;;;;;3.88;3.13;;;;;;;19.31;56.13;101504.91;5060617;28;20094;-68
2022/06/29 00:19:14;;;;;;;7.88;3.55;;;;;;;19.30;56.65;101508.03;5059340;28;20051;-68
2022/06/29 00:21:39;;;;;;;7.13;3.83;;;;;;;19.29;56.47;101504.34;5050363;28;20029;-68
2022/06/29 00:24:05;;;;;;;3.72;3.05;;;;;;;19.22;56.92;101500.25;5054804;28;20035;-68
2022/06/29 00:26:31;;;;;;;4.60;3.30;;;;;;;19.23;57.18;101497.13;5064873;28;20490;-68
2022/06/29 00:28:56;;;;;;;4.65;3.50;;;;;;;19.25;57.06;101497.66;5064667;28;20048;-68
2022/06/29 00:31:21;;;;;;;4.68;3.80;;;;;;;19.22;57.29;101501.06;5062205;28;20029;-68
2022/06/29 00:33:47;;;;;;;6.65;4.00;;;;;;;19.18;57.01;101504.75;5058625;28;20049;-68
2022/06/29 00:36:12;;;;;;;6.75;3.70;;;;;;;19.13;56.93;101498.03;5053846;28;20043;-68
2022/06/29 00:38:37;;;;;;;6.28;3.80;;;;;;;19.12;56.91;101495.53;5052207;28;20036;-69
2022/06/29 00:41:02;;;;;;;4.57;3.72;;;;;;;19.07;57.10;101492.75;5044459;28;20029;-68
2022/06/29 00:43:28;;;;;;;6.72;3.83;;;;;;;19.05;57.54;101503.47;5056113;28;20476;-68
2022/06/29 00:45:53;;;;;;;4.55;3.65;;;;;;;19.01;57.76;101489.13;5052168;28;20054;-68
2022/06/29 00:48:19;;;;;;;4.38;3.63;;;;;;;19.03;57.38;101491.69;5071446;28;20020;-68
2022/06/29 00:50:46;;;;;;;5.22;4.22;;;;;;;19.00;57.55;101483.81;5058183;28;20079;-68
2022/06/29 00:53:14;;;;;;;7.65;4.05;;;;;;;18.95;57.73;101487.53;5056307;28;20057;-68
2022/06/29 00:55:42;;;;;;;4.20;3.60;;;;;;;18.99;57.32;101482.16;5071538;28;20086;-68
2022/06/29 00:58:10;;;;;;;6.82;4.45;;;;;;;18.91;57.38;101483.63;5055194;28;20029;-68
2022/06/29 01:00:36;;;;;;;7.20;4.38;;;;;;;18.92;57.55;101481.63;5057028;28;20427;-68
2022/06/29 01:03:02;;;;;;;5.88;4.35;;;;;;;18.88;57.62;101476.59;5051173;28;20476;-68
2022/06/29 01:05:29;;;;;;;5.78;4.20;;;;;;;18.83;58.02;101475.81;5065814;28;20395;-68
2022/06/29 01:07:55;;;;;;;5.63;4.47;;;;;;;18.78;58.06;101468.22;5070714;28;20043;-68
2022/06/29 01:10:21;;;;;;;6.22;4.70;;;;;;;18.74;57.91;101467.13;5055226;28;20468;-68
2022/06/29 01:12:53;;;;;;;7.88;4.55;;;;;;;18.71;58.08;101472.53;5064883;28;20031;-68
2022/06/29 01:15:19;;;;;;;8.88;4.60;;;;;;;18.72;57.85;101475.03;5059191;28;20052;-68
2022/06/29 01:17:44;;;;;;;8.27;4.72;;;;;;;18.70;57.83;101468.84;5054833;28;20025;-68
2022/06/29 01:20:11;;;;;;;7.20;4.32;;;;;;;18.64;58.22;101472.81;5044918;28;20035;-68
2022/06/29 01:22:37;;;;;;;9.13;4.57;;;;;;;18.65;58.12;101468.88;5060450;28;20376;-68
2022/06/29 01:25:03;;;;;;;7.05;5.00;;;;;;;18.61;58.32;101467.78;5062058;28;20032;-68
2022/06/29 01:27:28;;;;;;;8.10;4.50;;;;;;;18.60;58.10;101474.53;5054470;28;20051;-68
2022/06/29 01:29:53;;;;;;;9.88;4.97;;;;;;;18.59;58.06;101470.06;5056638;28;20380;-68
2022/06/29 01:32:20;;;;;;;5.38;4.35;;;;;;;18.59;58.37;101461.63;5059352;28;20079;-68
2022/06/29 01:34:45;;;;;;;6.28;4.80;;;;;;;18.57;58.62;101463.88;5056315;28;20036;-68
2022/06/29 01:37:11;;;;;;;7.00;4.78;;;;;;;18.58;58.42;101459.91;5066627;28;20035;-68
2022/06/29 01:39:37;;;;;;;10.10;4.70;;;;;;;18.50;58.16;101468.97;5061512;28;20472;-68
2022/06/29 01:42:04;;;;;;;8.25;5.15;;;;;;;18.44;58.67;101456.09;5061322;28;20924;-68
2022/06/29 01:44:29;;;;;;;6.28;4.20;;;;;;;18.42;58.35;101452.72;5065841;28;20033;-68
2022/06/29 01:46:55;;;;;;;7.70;4.40;;;;;;;18.44;58.41;101458.91;5056825;28;20086;-68
2022/06/29 01:49:20;;;;;;;7.65;5.18;;;;;;;18.43;58.63;101460.03;5050954;28;20025;-69
2022/06/29 01:51:45;;;;;;;6.28;4.22;;;;;;;18.41;58.71;101454.72;5070540;28;20029;-68
2022/06/29 01:54:11;;;;;;;5.47;4.95;;;;;;;18.38;59.15;101453.31;5059427;28;20040;-68
2022/06/29 01:56:36;;;;;;;8.05;4.80;;;;;;;18.39;58.88;101455.00;5064638;28;20575;-68
2022/06/29 01:59:01;;;;;;;8.70;4.90;;;;;;;18.35;58.89;101453.91;5065906;28;20029;-68
2022/06/29 02:01:27;;;;;;;6.35;4.90;;;;;;;18.32;58.85;101448.88;5055926;28;20025;-68
2022/06/29 02:03:52;;;;;;;6.22;4.82;;;;;;;18.33;58.68;101449.69;5051203;28;20131;-68
2022/06/29 02:06:19;;;;;;;8.02;4.80;;;;;;;18.30;58.56;101441.84;5063494;28;20112;-68
2022/06/29 02:08:45;;;;;;;7.40;4.93;;;;;;;18.23;59.23;101450.59;5063754;28;20047;-68
2022/06/29 02:11:10;;;;;;;7.80;4.97;;;;;;;18.27;58.97;101448.88;5059392;28;20456;-69
2022/06/29 02:13:35;;;;;;;8.02;5.20;;;;;;;18.24;58.87;101446.66;5058885;28;20033;-69
2022/06/29 02:16:01;;;;;;;7.22;5.00;;;;;;;18.24;59.30;101452.28;5061885;28;20463;-69
2022/06/29 02:18:26;;;;;;;6.97;4.72;;;;;;;18.21;59.15;101447.25;5059337;28;20016;-68
2022/06/29 02:20:51;;;;;;;7.47;4.93;;;;;;;18.18;59.14;101447.81;5073028;28;20017;-68
2022/06/29 02:23:17;;;;;;;5.47;4.78;;;;;;;18.14;59.13;101450.38;5067552;28;20046;-68
2022/06/29 02:25:42;;;;;;;6.53;4.93;;;;;;;18.17;59.00;101446.16;5054143;28;20231;-69
2022/06/29 02:28:07;;;;;;;7.00;5.15;;;;;;;18.18;59.24;101445.00;5055005;28;20551;-68
2022/06/29 02:36:02;;;;;;;8.30;5.70;;;;;;;18.10;59.81;101446.47;5055763;28;20047;-68
2022/06/29 02:38:27;;;;;;;6.43;5.22;;;;;;;18.13;60.00;101443.06;5060050;28;20450;-68
2022/06/29 02:40:53;;;;;;;8.40;5.80;;;;;;;18.14;59.96;101443.91;5059780;28;20515;-68
2022/06/29 02:43:18;;;;;;;6.40;5.38;;;;;;;18.14;60.06;101443.91;5063951;28;20041;-68
2022/06/29 02:45:43;;;;;;;5.80;5.30;;;;;;;18.13;60.09;101442.25;5046468;28;20040;-68
2022/06/29 02:48:08;;;;;;;10.27;6.03;;;;;;;18.11;60.00;101436.06;5067032;28;20116;-68
2022/06/29 02:50:34;;;;;;;6.45;5.30;;;;;;;18.11;60.03;101430.44;5061369;28;20480;-68
2022/06/29 02:52:59;;;;;;;7.07;5.88;;;;;;;18.07;59.98;101423.72;5062554;28;20147;-68
2022/06/29 02:55:25;;;;;;;6.80;5.10;;;;;;;18.08;59.93;101428.22;5055306;28;20029;-68
2022/06/29 02:57:50;;;;;;;10.27;5.72;;;;;;;18.04;60.11;101429.94;5067363;28;20056;-68
2022/06/29 03:00:16;;;;;;;9.30;5.65;;;;;;;18.04;59.82;101418.69;5053418;28;20059;-68
2022/06/29 03:02:41;;;;;;;6.95;5.70;;;;;;;17.98;60.00;101422.66;5052526;28;20040;-68
2022/06/29 03:05:07;;;;;;;9.02;5.85;;;;;;;17.98;59.89;101414.22;5072652;28;20051;-68
2022/06/29 03:07:32;;;;;;;7.50;5.90;;;;;;;17.97;60.08;101415.38;5044206;28;20083;-68
2022/06/29 03:09:58;;;;;;;7.57;5.68;;;;;;;17.96;59.68;101410.84;5058875;28;20025;-68
2022/06/29 03:12:23;;;;;;;6.80;5.57;;;;;;;17.96;60.03;101410.84;5059626;28;20125;-68
2022/06/29 03:14:48;;;;;;;6.47;5.80;;;;;;;17.89;60.20;101414.84;5059080;28;20044;-68
2022/06/29 03:17:13;;;;;;;7.97;5.38;;;;;;;17.84;60.24;101403.63;5056868;28;20036;-68
2022/06/29 03:19:39;;;;;;;8.43;5.80;;;;;;;17.85;60.29;101410.09;5056184;28;20114;-68
2022/06/29 03:22:04;;;;;;;9.48;6.18;;;;;;;17.80;60.16;101407.28;5057386;28;20044;-68
2022/06/29 03:24:29;;;;;;;7.70;5.90;;;;;;;17.80;60.36;101407.28;5064677;28;20040;-68
2022/06/29 03:26:55;;;;;;;11.25;5.97;;;;;;;17.78;60.03;101399.16;5055658;28;20480;-68
2022/06/29 03:29:20;;;;;;;7.20;5.75;;;;;;;17.73;60.58;101404.78;5057113;28;20078;-68
2022/06/29 03:31:45;;;;;;;7.68;5.43;;;;;;;17.73;60.72;101399.16;5055671;28;20036;-68
2022/06/29 03:34:10;;;;;;;8.63;6.20;;;;;;;17.74;60.62;101400.00;5061605;28;20028;-68
2022/06/29 03:36:36;;;;;;;6.80;6.10;;;;;;;17.75;61.10;101388.50;5059970;28;20036;-68
2022/06/29 03:39:01;;;;;;;7.60;6.25;;;;;;;17.76;60.41;101384.56;5057624;28;20029;-68
2022/06/29 03:41:27;;;;;;;9.75;6.13;;;;;;;17.76;60.95;101387.38;5066125;28;20021;-68
2022/06/29 03:43:52;;;;;;;6.68;5.95;;;;;;;17.66;60.98;101387.41;5050966;28;20067;-68
2022/06/29 03:46:17;;;;;;;8.73;6.15;;;;;;;17.71;60.72;101386.53;5046568;28;20025;-68
2022/06/29 03:48:42;;;;;;;7.22;6.53;;;;;;;17.67;60.96;101383.47;5061442;28;20475;-68
2022/06/29 03:51:08;;;;;;;12.27;6.95;;;;;;;17.70;60.52;101385.69;5046275;28;20021;-68
2022/06/29 03:53:33;;;;;;;11.65;6.72;;;;;;;17.67;60.82;101377.84;5047000;28;20033;-68
2022/06/29 03:55:59;;;;;;;9.43;6.78;;;;;;;17.61;60.84;101382.66;5053722;28;20025;-68
2022/06/29 03:58:24;;;;;;;8.02;6.30;;;;;;;17.65;60.94;101377.31;5064241;28;20032;-68
2022/06/29 04:00:49;;;;;;;10.60;6.85;;;;;;;17.60;60.93;101375.34;5053755;28;20037;-68
2022/06/29 04:03:15;;;;;;;8.13;7.30;;;;;;;17.59;61.27;101373.66;5053902;28;20060;-68
2022/06/29 04:05:40;;;;;;;11.65;7.32;;;;;;;17.61;61.12;101370.59;5056966;28;20063;-68
2022/06/29 04:08:05;;;;;;;10.27;7.22;;;;;;;17.58;61.01;101374.81;5064984;28;20036;-68
2022/06/29 04:10:31;;;;;;;8.95;6.97;;;;;;;17.62;61.42;101366.66;5060634;28;20511;-68
2022/06/29 04:12:56;;;;;;;10.57;6.70;;;;;;;17.58;61.52;101365.53;5063158;28;20459;-68
2022/06/29 04:15:21;;;;;;;8.15;6.93;;;;;;;17.63;61.24;101369.16;5056234;28;20025;-68
2022/06/29 04:17:47;;;;;;;9.30;6.97;;;;;;;17.60;61.72;101374.50;5067272;28;20052;-69
2022/06/29 04:22:58;;;;;;;10.75;7.20;;;;;;;17.57;61.96;101386.31;5060393;28;20040;-68
2022/06/29 04:25:24;;;;;;;9.77;7.63;;;;;;;17.59;61.94;101376.47;5064576;28;20021;-68
2022/06/29 04:27:49;;;;;;;11.10;7.57;;;;;;;17.57;62.38;101375.09;5067738;28;20399;-69
2022/06/29 04:30:14;;;;;;;10.27;7.50;;;;;;;17.61;62.21;101376.19;5051464;28;20035;-69
2022/06/29 04:32:39;;;;;;;11.80;8.02;;;;;;;17.64;62.14;101372.78;5060253;28;20471;-68
2022/06/29 04:35:05;;;;;;;12.80;8.00;;;;;;;17.58;62.19;101369.19;5057805;28;20039;-68
2022/06/29 04:37:31;;;;;;;9.48;7.10;;;;;;;17.61;62.30;101367.78;5062995;28;20040;-68
2022/06/29 04:39:56;;;;;;;16.27;7.63;;;;;;;17.66;62.03;101373.38;5065729;28;20028;-68
2022/06/29 04:42:21;;;;;;;10.98;7.45;;;;;;;17.63;62.00;101368.31;5048325;28;20032;-68
2022/06/29 04:44:46;;;;;;;11.27;7.93;;;;;;;17.70;62.11;101368.84;5053329;28;20473;-68
2022/06/29 04:47:12;;;;;;;12.63;8.40;;;;;;;17.72;62.11;101372.19;5062851;28;20040;-68
2022/06/29 04:49:37;;;;;;;12.55;8.10;;;;;;;17.74;62.09;101367.16;5067826;28;20032;-68
2022/06/29 04:52:03;;;;;;;16.33;8.40;;;;;;;17.79;61.41;101367.13;5052746;28;20017;-68
2022/06/29 04:54:28;;;;;;;10.93;8.73;;;;;;;17.82;61.68;101363.75;5070448;28;20032;-68
2022/06/29 04:56:53;;;;;;;9.32;8.30;;;;;;;17.84;61.86;101357.84;5057890;28;20070;-68
2022/06/29 04:59:19;;;;;;;13.35;9.23;;;;;;;17.86;61.74;101364.03;5065512;28;20025;-67
2022/06/29 05:01:47;;;;;;;11.18;8.50;;;;;;;17.89;61.40;101360.63;5050914;28;20105;-68
2022/06/29 05:04:13;;;;;;;13.38;9.23;;;;;;;17.94;61.58;101365.38;5062639;28;20049;-68
2022/06/29 05:06:38;;;;;;;10.13;9.13;;;;;;;17.98;61.81;101360.88;5058997;28;20036;-68
2022/06/29 05:09:03;;;;;;;9.30;8.35;;;;;;;18.02;61.06;101359.16;5055802;28;20024;-67
2022/06/29 05:11:28;;;;;;;11.38;8.80;;;;;;;18.11;61.74;101361.03;5054385;28;20044;-68
2022/06/29 05:13:54;;;;;;;10.75;8.32;;;;;;;18.13;61.27;101360.75;5062013;28;20020;-68
2022/06/29 05:16:20;;;;;;;11.20;8.75;;;;;;;18.20;61.21;101350.03;5065543;28;20147;-68
2022/06/29 05:18:45;;;;;;;11.85;8.90;;;;;;;18.21;60.80;101348.06;5056256;28;20025;-68
2022/06/29 05:21:11;;;;;;;10.25;8.10;;;;;;;18.27;60.88;101344.06;5055291;28;20031;-67
2022/06/29 05:23:36;;;;;;;12.43;8.57;;;;;;;18.33;60.99;101351.34;5063359;28;20033;-67
2022/06/29 05:26:02;;;;;;;15.95;8.68;;;;;;;18.38;60.63;101351.28;5069848;28;20125;-67
2022/06/29 05:28:27;;;;;;;11.13;8.38;;;;;;;18.45;60.26;101345.34;5061386;28;20032;-67
2022/06/29 05:30:53;;;;;;;10.57;7.82;;;;;;;18.52;60.21;101351.47;5054101;28;20029;-67
2022/06/29 05:33:18;;;;;;;10.43;8.13;;;;;;;18.59;60.07;101346.34;5056273;28;20391;-68
2022/06/29 05:35:44;;;;;;;17.17;8.85;;;;;;;18.65;59.93;101350.78;5055329;28;20429;-68
2022/06/29 05:38:09;;;;;;;11.07;7.85;;;;;;;18.73;59.61;101340.91;5053760;28;20051;-68
2022/06/29 05:40:35;;;;;;;10.45;8.25;;;;;;;18.79;60.01;101340.56;5052188;28;20427;-68
2022/06/29 05:43:00;;;;;;;12.55;8.05;;;;;;;18.86;59.67;101346.69;5057190;28;20123;-68
2022/06/29 05:45:26;;;;;;;12.38;7.30;;;;;;;18.92;59.15;101339.00;5052397;28;20094;-68
2022/06/29 05:47:53;;;;;;;10.35;7.07;;;;;;;18.96;59.57;101342.91;5061675;28;20111;-68
2022/06/29 05:50:19;;;;;;;10.02;7.47;;;;;;;18.97;60.11;101336.13;5047728;28;20470;-68
2022/06/29 05:52:44;;;;;;;8.15;7.32;;;;;;;19.04;59.72;101344.22;5063533;28;20028;-67
2022/06/29 05:55:09;;;;;;;8.55;6.63;;;;;;;19.14;59.43;101344.13;5052274;28;20464;-68
2022/06/29 05:57:35;;;;;;;8.07;6.20;;;;;;;19.21;59.21;101341.78;5061232;28;20099;-67
2022/06/29 06:00:03;;;;;;;8.88;4.00;;;;;;;19.33;59.03;101338.53;5050803;28;20052;-67
2022/06/29 06:02:28;;;;;;;3.30;2.58;;;;;;;19.52;58.72;101341.41;5047177;28;20075;-67
2022/06/29 06:04:53;;;;;;;4.50;3.17;;;;;;;19.64;58.62;101344.66;5036831;28;20428;-65
2022/06/29 06:07:18;;;;;;;3.72;3.38;;;;;;;19.72;58.40;101349.59;5042176;28;20037;-67
2022/06/29 06:09:44;;;;;;;2.63;2.33;;;;;;;19.90;58.57;101345.13;5041262;28;20361;-67
2022/06/29 06:12:09;;;;;;;5.55;2.50;;;;;;;19.91;57.50;101349.63;5043138;28;20032;-66
2022/06/29 06:14:34;;;;;;;3.80;2.88;;;;;;;20.01;57.79;101341.03;5047749;28;20021;-66
2022/06/29 06:17:00;;;;;;;4.35;3.38;;;;;;;20.10;57.31;101336.38;5043102;28;20468;-67
2022/06/29 06:19:25;;;;;;;3.53;3.00;;;;;;;20.17;57.08;101333.19;5045349;28;20613;-66
2022/06/29 06:21:50;;;;;;;4.32;3.78;;;;;;;20.21;57.32;101339.03;5039336;28;20055;-66
2022/06/29 06:24:16;;;;;;;4.22;3.33;;;;;;;20.23;56.72;101346.03;5045157;28;20048;-69
2022/06/29 06:26:41;;;;;;;5.32;3.80;;;;;;;20.27;56.44;101335.81;5040322;28;20464;-68
2022/06/29 06:29:06;;;;;;;6.65;3.28;;;;;;;20.35;56.31;101337.94;5043547;28;20023;-67
2022/06/29 06:31:32;;;;;;;4.80;3.58;;;;;;;20.46;56.19;101332.97;5049020;28;20566;-66
2022/06/29 06:33:57;;;;;;;5.25;3.33;;;;;;;20.51;55.97;101334.88;5051324;28;20016;-67
2022/06/29 06:36:22;;;;;;;6.85;3.65;;;;;;;20.56;55.94;101335.66;5059458;28;20030;-67
2022/06/29 06:38:48;;;;;;;4.22;3.47;;;;;;;20.64;56.02;101334.09;5059541;28;20487;-68
2022/06/29 06:41:22;;;;;;;4.35;3.50;;;;;;;20.69;54.78;101336.81;5050434;28;20037;-68
2022/06/29 06:43:54;;;;;;;9.30;3.25;;;;;;;20.79;54.99;101339.47;5051541;28;20124;-68
2022/06/29 06:46:19;;;;;;;7.55;3.30;;;;;;;20.87;54.90;101337.06;5061641;28;20363;-70
2022/06/29 06:48:45;;;;;;;4.45;2.70;;;;;;;20.93;54.09;101342.31;5047154;28;20030;-67
2022/06/29 06:51:12;;;;;;;7.10;2.92;;;;;;;20.97;53.13;101342.53;5053125;28;20079;-68
2022/06/29 06:53:37;;;;;;;4.97;2.90;;;;;;;20.99;52.40;101340.25;5067738;28;20032;-67
2022/06/29 06:56:03;;;;;;;3.85;2.55;;;;;;;21.05;52.84;101334.16;5050187;28;20116;-68
2022/06/29 06:58:28;;;;;;;4.65;2.60;;;;;;;21.11;52.95;101334.91;5047327;28;20067;-68
2022/06/29 07:00:54;;;;;;;5.18;2.58;;;;;;;21.18;52.37;101335.34;5053940;28;20028;-67
2022/06/29 07:03:19;;;;;;;3.00;2.63;;;;;;;21.23;52.05;101335.22;5052066;28;20057;-68
2022/06/29 07:05:44;;;;;;;3.65;2.58;;;;;;;21.24;50.85;101339.72;5067280;28;20498;-67
2022/06/29 07:08:10;;;;;;;4.13;2.35;;;;;;;21.29;51.06;101330.31;5049568;28;20064;-68
2022/06/29 07:10:35;;;;;;;3.97;2.28;;;;;;;21.34;51.04;101338.72;5060310;28;20029;-68
2022/06/29 07:13:00;;;;;;;5.15;2.13;;;;;;;21.47;49.73;101337.03;5063409;28;20036;-68
2022/06/29 07:15:26;;;;;;;5.32;2.50;;;;;;;21.51;49.93;101329.59;5071440;28;20060;-69
2022/06/29 07:17:51;;;;;;;5.40;2.15;;;;;;;21.58;50.58;101330.03;5062944;28;20119;-68
2022/06/29 07:20:16;;;;;;;4.78;2.28;;;;;;;21.61;48.62;101332.19;5064246;28;20025;-68
2022/06/29 07:22:41;;;;;;;4.80;2.25;;;;;;;21.67;48.26;101333.75;5041988;28;20108;-68
2022/06/29 07:25:07;;;;;;;4.18;1.85;;;;;;;21.72;48.80;101333.63;5048785;28;20383;-67
2022/06/29 07:27:32;;;;;;;3.75;2.20;;;;;;;21.81;48.49;101339.38;5062816;28;20052;-68
2022/06/29 07:29:58;;;;;;;5.43;2.20;;;;;;;21.87;47.90;101337.28;5059262;28;20028;-71
2022/06/29 07:32:23;;;;;;;2.85;2.03;;;;;;;21.97;47.75;101332.25;5049011;28;20029;-68
2022/06/29 07:34:48;;;;;;;5.60;2.40;;;;;;;22.08;47.44;101332.81;5051598;28;20102;-67
2022/06/29 07:37:14;;;;;;;4.85;2.10;;;;;;;22.05;47.06;101333.47;5054401;28;20029;-72
2022/06/29 07:39:39;;;;;;;8.38;2.50;;;;;;;22.06;47.04;101330.31;5043170;28;20527;-69
2022/06/29 07:42:05;;;;;;;4.30;2.22;;;;;;;22.16;45.99;101320.78;5041462;28;20067;-69
2022/06/29 07:44:31;;;;;;;2.90;1.83;;;;;;;22.22;47.36;101327.16;5039448;28;20025;-69
2022/06/29 07:46:56;;;;;;;3.45;1.73;;;;;;;22.25;47.16;101324.53;5046489;28;20644;-70
2022/06/29 07:49:22;;;;;;;2.95;1.92;;;;;;;22.31;47.39;101328.03;5045669;28;20021;-70
2022/06/29 07:51:48;;;;;;;5.38;2.00;;;;;;;22.35;47.09;101320.59;5044548;28;20051;-71
2022/06/29 07:54:14;;;;;;;4.60;2.05;;;;;;;22.40;47.14;101316.78;5036131;28;20480;-70
2022/06/29 07:56:39;;;;;;;3.45;1.80;;;;;;;22.60;47.74;101312.59;5055139;28;20038;-70
2022/06/29 07:59:05;;;;;;;4.35;1.90;;;;;;;22.60;46.50;101321.94;5050345;28;20511;-68
2022/06/29 08:01:30;;;;;;;4.13;1.50;;;;;;;22.70;46.28;101309.50;5049940;28;20052;-67
2022/06/29 08:03:55;;;;;;;3.70;1.63;;;;;;;22.76;47.08;101316.72;5053132;28;20465;-67
2022/06/29 08:06:22;;;;;;;3.65;2.10;;;;;;;22.83;45.70;101308.56;5058861;28;20020;-68
2022/06/29 08:08:47;;;;;;;3.92;1.50;;;;;;;22.92;45.87;101305.84;5051705;28;20024;-68
2022/06/29 08:11:12;;;;;;;2.72;1.42;;;;;;;22.91;45.40;101315.47;5046282;28;20025;-68
2022/06/29 08:13:38;;;;;;;2.33;1.48;;;;;;;22.99;44.97;101307.03;5060988;28;20384;-68
2022/06/29 08:16:06;;;;;;;4.40;1.50;;;;;;;23.07;45.15;101307.38;5056656;28;20028;-68
2022/06/29 08:18:32;;;;;;;4.10;1.75;;;;;;;23.10;44.51;101310.41;5050051;28;20018;-64
2022/06/29 08:20:57;;;;;;;1.73;1.40;;;;;;;23.15;43.65;101310.28;5042158;28;20083;-69
2022/06/29 08:23:23;;;;;;;3.28;1.70;;;;;;;23.21;44.21;101302.44;5056884;28;20047;-68
2022/06/29 08:25:48;;;;;;;4.43;1.48;;;;;;;23.27;45.25;101312.47;5063514;28;20234;-68
2022/06/29 08:28:13;;;;;;;5.03;1.70;;;;;;;23.36;44.75;101306.84;5049068;28;20061;-68
2022/06/29 08:30:38;;;;;;;5.85;1.73;;;;;;;23.43;43.84;101298.69;5050134;28;20025;-69
2022/06/29 08:33:04;;;;;;;1.65;1.25;;;;;;;23.45;43.28;101300.00;5052154;28;20029;-69
2022/06/29 08:35:30;;;;;;;3.85;1.35;;;;;;;23.53;43.79;101304.03;5052034;28;20076;-69
2022/06/29 08:37:55;;;;;;;3.60;1.50;;;;;;;23.62;43.76;101302.06;5055278;28;20120;-67
2022/06/29 08:40:20;;;;;;;4.65;1.58;;;;;;;23.61;44.08;101306.06;5055470;28;20029;-67
2022/06/29 08:42:47;;;;;;;3.55;1.45;;;;;;;23.81;43.70;101306.59;5058080;28;20025;-69
2022/06/29 08:45:14;;;;;;;3.80;1.60;;;;;;;23.74;42.75;101307.97;5051568;28;20029;-68
2022/06/29 08:47:42;;;;;;;6.15;1.77;;;;;;;23.81;42.33;101293.28;5054195;28;20507;-66
2022/06/29 08:50:10;;;;;;;4.40;1.40;;;;;;;23.87;43.63;101299.63;5044090;28;20120;-65
2022/06/29 08:52:36;;;;;;;2.60;1.60;;;;;;;23.87;43.53;101299.63;5054855;28;20108;-67
2022/06/29 08:55:07;;;;;;;4.10;1.88;;;;;;;23.86;42.37;101297.97;5050929;28;20028;-66
2022/06/29 08:57:37;;;;;;;2.90;1.70;;;;;;;24.02;43.96;101289.81;5064990;28;20542;-66
2022/06/29 09:00:04;;;;;;;3.92;1.60;;;;;;;23.96;44.12;101289.94;5062264;28;20422;-67
2022/06/29 09:02:29;;;;;;;2.88;1.50;;;;;;;24.01;43.54;101291.78;5061762;28;20503;-67
2022/06/29 09:04:55;;;;;;;2.67;1.48;;;;;;;23.95;42.21;101293.97;5060736;28;20051;-67
2022/06/29 09:07:21;;;;;;;5.85;1.60;;;;;;;23.97;42.68;101288.81;5054164;28;20028;-68
2022/06/29 09:10:08;;;;;;;3.72;1.50;;;;;;;24.00;42.62;101292.94;5070461;28;20063;-68
2022/06/29 09:12:34;;;;;;;2.78;1.40;;;;;;;24.07;41.44;101290.44;5059257;28;20031;-68
2022/06/29 09:15:01;;;;;;;4.65;1.20;;;;;;;24.23;41.14;101290.78;5057129;28;20036;-68
2022/06/29 09:17:26;;;;;;;5.07;1.52;;;;;;;24.30;40.28;101287.44;5073030;28;20029;-67
2022/06/29 09:19:53;;;;;;;3.03;1.40;;;;;;;24.33;39.98;101289.63;5070148;28;20021;-67
2022/06/29 09:22:19;;;;;;;1.70;1.40;;;;;;;24.48;41.13;101289.09;5048525;28;20383;-70
2022/06/29 09:24:44;;;;;;;2.13;1.30;;;;;;;24.41;38.98;101286.78;5052793;28;20043;-73
2022/06/29 09:27:13;;;;;;;2.40;1.13;;;;;;;24.48;40.18;101289.94;5051527;28;20079;-69
2022/06/29 09:29:41;;;;;;;1.98;1.30;;;;;;;24.62;40.38;101289.75;5054747;28;21229;-71
2022/06/29 09:32:16;;;;;;;3.15;1.33;;;;;;;24.61;40.26;101293.75;5051163;28;20053;-72
2022/06/29 09:34:46;;;;;;;1.80;1.40;;;;;;;24.65;39.63;101272.03;5060614;28;20047;-71
2022/06/29 09:37:16;;;;;;;4.15;1.42;;;;;;;24.88;41.45;101280.31;5059389;28;20025;-71
2022/06/29 09:39:59;;;;;;;3.47;1.60;;;;;;;24.95;41.42;101283.44;5069925;28;20489;-72
2022/06/29 09:42:26;;;;;;;2.90;1.30;;;;;;;25.03;39.99;101282.56;5051105;28;20025;-71
2022/06/29 09:44:52;;;;;;;1.40;1.20;;;;;;;25.19;40.43;101286.56;5064930;28;20021;-72
2022/06/29 09:47:19;;;;;;;2.53;1.48;;;;;;;25.15;39.95;101284.72;5056476;28;20502;-72
2022/06/29 09:49:47;;;;;;;1.90;1.20;;;;;;;25.14;38.95;101283.88;5043519;28;20025;-71
2022/06/29 09:52:14;;;;;;;2.20;1.30;;;;;;;25.05;38.45;101274.56;5066849;28;20036;-72
2022/06/29 09:54:51;;;;;;;5.95;1.50;;;;;;;25.14;39.16;101280.22;5061784;28;20086;-72
2022/06/29 09:57:20;;;;;;;1.98;1.17;;;;;;;25.16;38.90;101280.72;5063969;28;20028;-72
2022/06/29 10:02:39;;;;;;;3.65;1.50;;;;;;;25.25;38.21;101275.81;5044372;28;20052;-72
2022/06/29 10:05:11;;;;;;;2.28;1.10;;;;;;;25.27;38.90;101281.16;5061308;28;20091;-72
2022/06/29 10:07:39;;;;;;;2.53;1.30;;;;;;;25.38;38.44;101271.06;5069625;28;20052;-72
2022/06/29 10:10:07;;;;;;;2.38;1.13;;;;;;;25.39;37.75;101278.44;5052789;28;20557;-72
2022/06/29 10:15:56;;;;;;;2.53;1.58;;;;;;;25.51;38.93;101280.53;5062537;28;20047;-71
2022/06/29 10:18:40;;;;;;;2.90;1.40;;;;;;;25.48;38.93;101279.19;5054222;28;20032;-71
2022/06/29 10:21:18;;;;;;;2.25;1.30;;;;;;;25.39;38.43;101265.06;5055731;28;20825;-72
2022/06/29 10:23:51;;;;;;;2.38;1.30;;;;;;;25.37;39.38;101267.38;5049267;28;20409;-72
2022/06/29 10:26:27;;;;;;;1.67;1.20;;;;;;;25.33;38.56;101251.38;5062909;28;20020;-71
2022/06/29 10:28:53;;;;;;;2.20;1.27;;;;;;;25.39;38.29;101261.38;5058228;28;20035;-72
2022/06/29 10:31:59;;;;;;;3.50;1.40;;;;;;;25.42;39.76;101261.50;5051512;28;20075;-71
2022/06/29 10:34:30;;;;;;;2.83;1.40;;;;;;;25.35;39.48;101261.22;5050391;28;20035;-74
2022/06/29 10:37:15;;;;;;;2.65;1.50;;;;;;;25.33;39.81;101259.91;5047393;28;20127;-74
2022/06/29 10:39:43;;;;;;;3.40;1.48;;;;;;;25.31;40.74;101265.94;5052248;28;20025;-73
2022/06/29 10:45:09;;;;;;;2.35;1.60;;;;;;;25.27;38.87;101242.22;5045910;28;20086;-73
2022/06/29 10:47:35;;;;;;;2.50;1.40;;;;;;;25.19;38.92;101246.78;5049325;28;20032;-75
2022/06/29 10:50:20;;;;;;;3.03;1.25;;;;;;;25.15;40.09;101240.13;5054121;28;20067;-73
2022/06/29 10:52:46;;;;;;;3.22;1.40;;;;;;;25.07;40.12;101235.25;5061589;28;20465;-77
2022/06/29 10:55:12;;;;;;;3.53;1.30;;;;;;;25.04;40.75;101235.16;5050568;28;20461;-75
2022/06/29 10:57:40;;;;;;;3.03;1.52;;;;;;;25.07;39.31;101240.13;5053303;28;20056;-71
2022/06/29 11:00:09;;;;;;;3.00;1.38;;;;;;;25.07;40.19;101234.44;5052113;28;20032;-73
2022/06/29 11:02:36;;;;;;;4.07;1.45;;;;;;;25.07;39.44;101232.44;5048174;28;20037;-73
2022/06/29 11:05:02;;;;;;;2.03;1.20;;;;;;;25.01;39.73;101230.16;5054262;28;20041;-78
2022/06/29 11:12:57;;;;;;;2.60;1.30;;;;;;;24.97;39.89;101227.97;5047330;28;20086;-71
2022/06/29 11:15:41;;;;;;;2.42;1.60;;;;;;;25.01;40.34;101232.97;5049007;28;20472;-70
2022/06/29 11:18:08;;;;;;;1.85;1.40;;;;;;;24.97;40.38;101232.84;5049552;28;20475;-70
2022/06/29 11:20:33;;;;;;;2.42;1.55;;;;;;;24.97;39.77;101227.16;5051304;28;20028;-69
2022/06/29 11:22:58;;;;;;;2.67;1.45;;;;;;;24.96;39.45;101234.00;5047191;28;20055;-70
2022/06/29 11:25:25;;;;;;;4.35;1.60;;;;;;;24.91;38.95;101226.50;5048240;28;20396;-71
2022/06/29 11:27:50;;;;;;;2.88;1.35;;;;;;;24.94;40.01;101222.16;5050503;28;20040;-70
2022/06/29 11:30:21;;;;;;;1.70;1.48;;;;;;;24.97;39.29;101224.31;5049736;28;20436;-70
2022/06/29 11:32:48;;;;;;;4.22;1.58;;;;;;;24.99;39.02;101224.78;5055604;28;20036;-68
2022/06/29 11:35:22;;;;;;;3.67;1.50;;;;;;;25.01;38.41;101215.94;5046476;28;20444;-71
2022/06/29 11:37:51;;;;;;;2.42;1.42;;;;;;;25.04;41.21;101212.44;5050218;28;20036;-71
2022/06/29 11:40:30;;;;;;;3.22;1.42;;;;;;;25.15;40.62;101211.72;5051605;28;20079;-67
2022/06/29 11:43:06;;;;;;;5.43;1.60;;;;;;;25.31;40.98;101211.09;5047556;28;20021;-70
2022/06/29 11:45:36;;;;;;;2.55;1.55;;;;;;;25.43;39.29;101212.03;5042803;28;20025;-67